Terminal Aerodrome Forecast
Issued by NWS Quad Cities IA IL

Home | Current Version | Previous Version | Text Only | Print | Product List | Glossary On
Versions: 1 2 3 4 5 6 7 8 9 10 11 12 13 14 15 16
019
FTUS43 KDVN 120306 AAA
TAFDBQ
TAF AMD
KDBQ 120306Z 1203/1224 VRB03KT P6SM OVC100
     FM120600 22004KT 6SM -SN OVC040
     FM121500 32013KT P6SM BKN025
     FM121800 32018G26KT P6SM OVC040=

USA.gov is the U.S. government's official web portal to all federal, state and local government web resources and services.